createdAt,value
2024-04-13T00:00:45.003Z,9
2024-04-13T00:01:45.015Z,9
2024-04-13T00:02:45.000Z,8
2024-04-13T00:03:45.051Z,7
2024-04-13T00:04:45.071Z,8
2024-04-13T00:05:44.999Z,9
2024-04-13T00:06:45.673Z,10
2024-04-13T00:07:45.004Z,11
2024-04-13T00:08:45.038Z,11
2024-04-13T00:09:45.001Z,8
2024-04-13T00:10:45.011Z,8
2024-04-13T00:11:44.998Z,9
2024-04-13T00:12:45.012Z,8
2024-04-13T00:13:45.005Z,9
2024-04-13T00:14:45.014Z,9
2024-04-13T00:15:44.996Z,8
2024-04-13T00:16:45.051Z,5
2024-04-13T00:17:45.023Z,8
2024-04-13T00:18:45.040Z,10
2024-04-13T00:19:45.015Z,8
2024-04-13T00:20:45.005Z,8
2024-04-13T00:21:45.006Z,8
2024-04-13T00:22:45.010Z,8
2024-04-13T00:23:45.448Z,8
2024-04-13T00:24:45.009Z,10
2024-04-13T00:25:45.012Z,7
2024-04-13T00:26:45.019Z,7
2024-04-13T00:27:45.011Z,7
2024-04-13T00:28:45.032Z,7
2024-04-13T00:29:45.030Z,9
2024-04-13T00:30:45.040Z,7
2024-04-13T00:31:45.082Z,9
2024-04-13T00:32:45.027Z,7
2024-04-13T00:33:45.056Z,8
2024-04-13T00:34:45.011Z,7
2024-04-13T00:35:45.011Z,10
2024-04-13T00:36:45.021Z,7
2024-04-13T00:37:45.016Z,7
2024-04-13T00:38:45.051Z,7
2024-04-13T00:39:45.063Z,8
2024-04-13T00:40:45.015Z,8
2024-04-13T00:41:45.016Z,7
2024-04-13T00:42:45.023Z,8
2024-04-13T00:43:45.018Z,10
2024-04-13T00:44:45.030Z,7
2024-04-13T00:45:45.041Z,9
2024-04-13T00:46:45.029Z,8
2024-04-13T00:47:45.460Z,8
2024-04-13T00:48:45.503Z,9
2024-04-13T00:49:45.037Z,13
2024-04-13T00:50:45.037Z,8
2024-04-13T00:51:45.025Z,8
2024-04-13T00:52:45.039Z,8
2024-04-13T00:53:45.029Z,9
2024-04-13T00:54:45.022Z,8
2024-04-13T00:55:45.029Z,8
2024-04-13T00:56:45.032Z,8
2024-04-13T00:57:45.116Z,7
2024-04-13T00:58:45.056Z,8
2024-04-13T00:59:45.021Z,9
2024-04-13T01:00:45.070Z,10
2024-04-13T01:01:45.082Z,7
2024-04-13T01:02:45.169Z,8
2024-04-13T01:03:45.164Z,9
2024-04-13T01:04:45.030Z,7
2024-04-13T01:05:45.037Z,7
2024-04-13T01:06:45.025Z,8
2024-04-13T01:07:45.027Z,8
2024-04-13T01:08:45.027Z,9
2024-04-13T01:09:45.019Z,7
2024-04-13T01:10:45.027Z,9
2024-04-13T01:11:45.114Z,7
2024-04-13T01:12:45.085Z,9
2024-04-13T01:13:45.029Z,8
2024-04-13T01:14:45.031Z,8
2024-04-13T01:15:45.036Z,6
2024-04-13T01:16:45.032Z,9
2024-04-13T01:17:45.183Z,8
2024-04-13T01:18:45.144Z,12
2024-04-13T01:19:45.050Z,12
2024-04-13T01:21:45.087Z,9
2024-04-13T01:22:45.052Z,9
2024-04-13T01:23:45.041Z,9
2024-04-13T01:24:45.035Z,6
2024-04-13T01:25:45.036Z,7
2024-04-13T01:26:45.063Z,10
2024-04-13T01:27:45.068Z,7
2024-04-13T01:28:45.033Z,8
2024-04-13T01:29:45.035Z,8
2024-04-13T01:30:45.105Z,8
2024-04-13T01:31:45.038Z,9
2024-04-13T01:32:45.094Z,10
2024-04-13T01:33:45.107Z,7
2024-04-13T01:34:45.038Z,6
2024-04-13T01:35:45.038Z,6
2024-04-13T01:36:45.049Z,8
2024-04-13T01:37:45.037Z,8
2024-04-13T01:38:45.039Z,9
2024-04-13T01:39:45.066Z,8
2024-04-13T01:40:45.049Z,10
2024-04-13T01:41:45.037Z,6
2024-04-13T01:42:45.045Z,8
2024-04-13T01:43:45.040Z,8
2024-04-13T01:44:45.043Z,8
2024-04-13T01:45:45.139Z,8
2024-04-13T01:46:45.053Z,6
2024-04-13T01:47:45.121Z,7
2024-04-13T01:48:45.144Z,9
2024-04-13T01:49:45.058Z,8
2024-04-13T01:50:45.039Z,8
2024-04-13T01:51:45.064Z,10
2024-04-13T01:52:45.057Z,7
2024-04-13T01:53:45.044Z,8
2024-04-13T01:54:45.058Z,8
2024-04-13T01:55:45.045Z,7
2024-04-13T01:56:45.054Z,7
2024-04-13T01:57:45.552Z,9
2024-04-13T01:58:45.052Z,8
2024-04-13T01:59:45.067Z,6
2024-04-13T02:00:45.241Z,7
2024-04-13T02:01:45.091Z,7
2024-04-13T02:02:45.058Z,9
2024-04-13T02:03:45.138Z,9
2024-04-13T02:04:45.053Z,8
2024-04-13T02:05:45.057Z,8
2024-04-13T02:06:45.104Z,7
2024-04-13T02:07:45.048Z,10
2024-04-13T02:08:45.062Z,6
2024-04-13T02:09:45.050Z,8
2024-04-13T02:10:45.075Z,6
2024-04-13T02:11:45.111Z,7
2024-04-13T02:12:45.057Z,6
2024-04-13T02:13:45.053Z,6
2024-04-13T02:14:45.062Z,5
2024-04-13T02:15:45.111Z,7
2024-04-13T02:16:45.100Z,6
2024-04-13T02:17:45.279Z,8
2024-04-13T02:18:45.106Z,8
2024-04-13T02:19:45.059Z,8
2024-04-13T02:20:45.064Z,9
2024-04-13T02:21:45.098Z,7
2024-04-13T02:22:45.058Z,10
2024-04-13T02:23:45.059Z,6
2024-04-13T02:24:45.139Z,9
2024-04-13T02:25:45.063Z,8
2024-04-13T02:26:45.133Z,8
2024-04-13T02:27:45.066Z,7
2024-04-13T02:28:45.065Z,8
2024-04-13T02:29:45.217Z,7
2024-04-13T02:30:45.099Z,8
2024-04-13T02:31:45.062Z,8
2024-04-13T02:32:45.138Z,7
2024-04-13T02:33:45.145Z,7
2024-04-13T02:34:45.083Z,7
2024-04-13T02:35:45.072Z,8
2024-04-13T02:36:45.087Z,6
2024-04-13T02:37:45.072Z,7
2024-04-13T02:38:45.079Z,8
2024-04-13T02:39:45.121Z,9
2024-04-13T02:40:45.067Z,7
2024-04-13T02:41:45.069Z,7
2024-04-13T02:42:45.095Z,7
2024-04-13T02:43:45.066Z,6
2024-04-13T02:44:45.830Z,5
2024-04-13T02:45:45.135Z,7
2024-04-13T02:46:45.070Z,8
2024-04-13T02:47:45.132Z,8
2024-04-13T02:48:45.405Z,7
2024-04-13T02:49:45.095Z,11
2024-04-13T02:50:45.082Z,8
2024-04-13T02:51:45.154Z,9
2024-04-13T02:52:45.073Z,7
2024-04-13T02:53:45.109Z,7
2024-04-13T02:54:45.112Z,7
2024-04-13T02:55:45.067Z,8
2024-04-13T02:56:45.070Z,10
2024-04-13T02:57:45.080Z,9
2024-04-13T02:58:45.132Z,9
2024-04-13T02:59:45.077Z,7
2024-04-13T03:00:45.149Z,5
2024-04-13T03:01:45.097Z,7
2024-04-13T03:02:45.090Z,10
2024-04-13T03:03:45.137Z,7
2024-04-13T03:04:46.426Z,8
2024-04-13T03:05:45.080Z,7
2024-04-13T03:06:45.108Z,8
2024-04-13T03:07:45.087Z,6
2024-04-13T03:08:45.116Z,7
2024-04-13T03:09:45.136Z,10
2024-04-13T03:10:45.089Z,10
2024-04-13T03:11:45.080Z,7
2024-04-13T03:12:45.147Z,7
2024-04-13T03:13:45.093Z,8
2024-04-13T03:14:45.079Z,8
2024-04-13T03:15:45.119Z,10
2024-04-13T03:16:45.084Z,10
2024-04-13T03:17:45.096Z,9
2024-04-13T03:18:45.390Z,9
2024-04-13T03:19:45.080Z,7
2024-04-13T03:20:45.080Z,8
2024-04-13T03:21:45.113Z,8
2024-04-13T03:22:45.086Z,9
2024-04-13T03:23:45.095Z,8
2024-04-13T03:24:45.175Z,9
2024-04-13T03:25:45.090Z,9
2024-04-13T03:26:45.089Z,7
2024-04-13T03:27:45.091Z,8
2024-04-13T03:28:45.113Z,9
2024-04-13T03:29:45.086Z,7
2024-04-13T03:30:45.130Z,10
2024-04-13T03:31:45.093Z,8
2024-04-13T03:32:45.161Z,9
2024-04-13T03:33:45.136Z,9
2024-04-13T03:34:45.086Z,9
2024-04-13T03:35:45.095Z,8
2024-04-13T03:36:45.492Z,11
2024-04-13T03:37:45.094Z,11
2024-04-13T03:38:45.089Z,8
2024-04-13T03:39:45.178Z,8
2024-04-13T03:40:45.091Z,13
2024-04-13T03:41:45.091Z,7
2024-04-13T03:42:45.111Z,7
2024-04-13T03:43:45.142Z,7
2024-04-13T03:44:45.113Z,6
2024-04-13T03:45:45.104Z,7
2024-04-13T03:46:45.115Z,7
2024-04-13T03:47:45.187Z,10
2024-04-13T03:48:45.239Z,9
2024-04-13T03:49:45.096Z,10
2024-04-13T03:50:45.096Z,7
2024-04-13T03:51:45.229Z,8
2024-04-13T03:52:45.117Z,11
2024-04-13T03:53:45.130Z,10
2024-04-13T03:54:45.157Z,8
2024-04-13T03:55:45.093Z,10
2024-04-13T03:56:45.109Z,9
2024-04-13T03:57:45.537Z,8
2024-04-13T03:58:45.110Z,9
2024-04-13T03:59:45.098Z,7
2024-04-13T04:01:45.184Z,8
2024-04-13T04:02:45.105Z,10
2024-04-13T04:03:45.153Z,9
2024-04-13T04:04:45.112Z,6
2024-04-13T04:05:45.102Z,10
2024-04-13T04:06:45.164Z,12
2024-04-13T04:07:45.117Z,9
2024-04-13T04:08:45.103Z,8
2024-04-13T04:09:45.143Z,9
2024-04-13T04:10:45.104Z,8
2024-04-13T04:11:45.125Z,9
2024-04-13T04:12:45.189Z,8
2024-04-13T04:13:45.101Z,8
2024-04-13T04:14:45.112Z,9
2024-04-13T04:15:45.206Z,9
2024-04-13T04:16:45.107Z,7
2024-04-13T04:17:45.215Z,9
2024-04-13T04:18:45.766Z,8
2024-04-13T04:19:45.106Z,8
2024-04-13T04:20:45.111Z,7
2024-04-13T04:21:45.173Z,6
2024-04-13T04:22:45.108Z,6
2024-04-13T04:23:45.108Z,11
2024-04-13T04:24:45.132Z,9
2024-04-13T04:25:45.122Z,8
2024-04-13T04:26:45.113Z,9
2024-04-13T04:27:45.146Z,9
2024-04-13T04:28:45.104Z,8
2024-04-13T04:29:45.112Z,10
2024-04-13T04:30:45.209Z,8
2024-04-13T04:31:45.120Z,8
2024-04-13T04:32:45.208Z,8
2024-04-13T04:33:45.192Z,7
2024-04-13T04:34:45.115Z,9
2024-04-13T04:35:45.181Z,11
2024-04-13T04:36:45.157Z,9
2024-04-13T04:37:45.112Z,7
2024-04-13T04:38:45.120Z,7
2024-04-13T04:39:45.157Z,6
2024-04-13T04:40:45.123Z,7
2024-04-13T04:41:45.116Z,10
2024-04-13T04:42:45.226Z,8
2024-04-13T04:43:45.144Z,8
2024-04-13T04:44:45.112Z,8
2024-04-13T04:45:45.199Z,8
2024-04-13T04:46:46.919Z,11
2024-04-13T04:47:45.199Z,8
2024-04-13T04:48:45.151Z,10
2024-04-13T04:49:45.127Z,11
2024-04-13T04:50:46.268Z,10
2024-04-13T04:51:45.152Z,7
2024-04-13T04:52:45.130Z,6
2024-04-13T04:53:45.123Z,9
2024-04-13T04:54:45.201Z,10
2024-04-13T04:55:45.120Z,8
2024-04-13T04:56:45.121Z,7
2024-04-13T04:57:45.123Z,6
2024-04-13T04:58:45.131Z,8
2024-04-13T04:59:45.121Z,12
2024-04-13T05:00:45.225Z,8
2024-04-13T05:01:45.205Z,8
2024-04-13T05:02:45.127Z,7
2024-04-13T05:03:45.286Z,9
2024-04-13T05:04:45.139Z,8
2024-04-13T05:05:45.132Z,10
2024-04-13T05:06:45.175Z,8
2024-04-13T05:07:45.136Z,8
2024-04-13T05:08:45.128Z,8
2024-04-13T05:09:45.155Z,7
2024-04-13T05:10:45.154Z,7
2024-04-13T05:11:45.154Z,9
2024-04-13T05:12:45.153Z,8
2024-04-13T05:13:45.132Z,6
2024-04-13T05:14:45.140Z,10
2024-04-13T05:15:45.162Z,7
2024-04-13T05:16:45.175Z,6
2024-04-13T05:17:45.190Z,8
2024-04-13T05:18:45.260Z,9
2024-04-13T05:19:47.664Z,8
2024-04-13T05:20:45.124Z,8
2024-04-13T05:21:45.191Z,10
2024-04-13T05:22:45.133Z,10
2024-04-13T05:23:45.134Z,7
2024-04-13T05:24:45.177Z,7
2024-04-13T05:25:45.134Z,7
2024-04-13T05:26:45.133Z,11
2024-04-13T05:27:45.178Z,9
2024-04-13T05:28:45.134Z,10
2024-04-13T05:29:45.134Z,9
2024-04-13T05:30:45.159Z,11
2024-04-13T05:31:45.204Z,8
2024-04-13T05:32:45.204Z,9
2024-04-13T05:33:45.233Z,7
2024-04-13T05:34:45.135Z,7
2024-04-13T05:35:45.146Z,8
2024-04-13T05:36:45.214Z,8
2024-04-13T05:37:45.143Z,9
2024-04-13T05:38:45.164Z,7
2024-04-13T05:39:45.208Z,5
2024-04-13T05:40:45.136Z,8
2024-04-13T05:41:45.153Z,8
2024-04-13T05:42:45.228Z,9
2024-04-13T05:43:45.153Z,11
2024-04-13T05:44:45.155Z,7
2024-04-13T05:46:45.263Z,7
2024-04-13T05:47:45.179Z,14
2024-04-13T05:48:45.214Z,8
2024-04-13T05:49:45.158Z,7
2024-04-13T05:50:45.156Z,9
2024-04-13T05:51:45.207Z,8
2024-04-13T05:52:45.145Z,8
2024-04-13T05:53:45.190Z,8
2024-04-13T05:54:45.178Z,7
2024-04-13T05:55:45.167Z,8
2024-04-13T05:56:45.167Z,9
2024-04-13T05:57:45.212Z,8
2024-04-13T05:58:45.176Z,9
2024-04-13T05:59:45.150Z,8
2024-04-13T06:00:45.183Z,10
2024-04-13T06:01:45.165Z,8
2024-04-13T06:02:45.197Z,11
2024-04-13T06:03:45.196Z,9
2024-04-13T06:04:45.221Z,6
2024-04-13T06:05:45.152Z,9
2024-04-13T06:06:45.187Z,7
2024-04-13T06:07:45.153Z,8
2024-04-13T06:08:45.152Z,8
2024-04-13T06:09:45.222Z,7
2024-04-13T06:10:45.215Z,7
2024-04-13T06:11:48.736Z,11
2024-04-13T06:12:45.280Z,7
2024-04-13T06:13:45.159Z,7
2024-04-13T06:14:45.166Z,10
2024-04-13T06:15:45.248Z,8
2024-04-13T06:16:45.199Z,10
2024-04-13T06:17:45.203Z,10
2024-04-13T06:18:45.334Z,9
2024-04-13T06:20:45.163Z,9
2024-04-13T06:21:45.323Z,7
2024-04-13T06:22:45.151Z,9
2024-04-13T06:23:45.164Z,7
2024-04-13T06:24:45.178Z,8
2024-04-13T06:25:45.169Z,8
2024-04-13T06:26:45.169Z,8
2024-04-13T06:27:45.225Z,8
2024-04-13T06:28:45.161Z,10
2024-04-13T06:29:45.181Z,10
2024-04-13T06:30:47.604Z,10
2024-04-13T06:31:45.159Z,7
2024-04-13T06:32:45.300Z,8
2024-04-13T06:33:45.315Z,7
2024-04-13T06:34:45.172Z,7
2024-04-13T06:35:45.168Z,8
2024-04-13T06:36:45.211Z,10
2024-04-13T06:37:45.165Z,9
2024-04-13T06:38:45.180Z,7
2024-04-13T06:39:45.245Z,6
2024-04-13T06:40:45.168Z,7
2024-04-13T06:41:45.167Z,7
2024-04-13T06:42:45.198Z,9
2024-04-13T06:43:45.184Z,9
2024-04-13T06:44:45.184Z,6
2024-04-13T06:45:45.244Z,10
2024-04-13T06:46:45.177Z,8
2024-04-13T06:47:45.205Z,6
2024-04-13T06:48:45.264Z,7
2024-04-13T06:49:45.171Z,6
2024-04-13T06:50:45.171Z,7
2024-04-13T06:51:45.212Z,8
2024-04-13T06:52:45.172Z,6
2024-04-13T06:53:45.198Z,7
2024-04-13T06:54:45.244Z,9
2024-04-13T06:55:45.182Z,10
2024-04-13T06:56:45.184Z,7
2024-04-13T06:57:45.235Z,8
2024-04-13T06:58:45.171Z,8
2024-04-13T06:59:45.175Z,7
2024-04-13T07:00:45.230Z,7
2024-04-13T07:01:45.172Z,7
2024-04-13T07:02:45.197Z,8
2024-04-13T07:03:45.238Z,8
2024-04-13T07:04:45.185Z,8
2024-04-13T07:05:45.187Z,8
2024-04-13T07:06:45.201Z,9
2024-04-13T07:07:45.991Z,6
2024-04-13T07:08:45.247Z,10
2024-04-13T07:09:45.276Z,9
2024-04-13T07:10:45.218Z,6
2024-04-13T07:11:45.180Z,8
2024-04-13T07:12:45.274Z,6
2024-04-13T07:13:45.183Z,6
2024-04-13T07:14:45.179Z,9
2024-04-13T07:15:45.227Z,10
2024-04-13T07:16:45.209Z,9
2024-04-13T07:17:48.232Z,6
2024-04-13T07:18:45.212Z,7
2024-04-13T07:19:45.186Z,7
2024-04-13T07:20:45.202Z,8
2024-04-13T07:21:45.270Z,8
2024-04-13T07:22:45.203Z,6
2024-04-13T07:23:45.249Z,9
2024-04-13T07:24:45.277Z,6
2024-04-13T07:25:45.208Z,7
2024-04-13T07:26:45.197Z,7
2024-04-13T07:27:45.223Z,6
2024-04-13T07:28:45.197Z,7
2024-04-13T07:29:45.215Z,7
2024-04-13T07:30:45.285Z,8
2024-04-13T07:31:45.199Z,7
2024-04-13T07:32:45.346Z,6
2024-04-13T07:33:45.328Z,7
2024-04-13T07:34:45.199Z,10
2024-04-13T07:35:45.244Z,7
2024-04-13T07:36:45.283Z,7
2024-04-13T07:37:45.200Z,7
2024-04-13T07:38:45.227Z,8
2024-04-13T07:39:45.299Z,8
2024-04-13T07:40:45.202Z,9
2024-04-13T07:41:45.208Z,5
2024-04-13T07:42:45.277Z,9
2024-04-13T07:43:45.198Z,7
2024-04-13T07:44:45.219Z,6
2024-04-13T07:45:45.244Z,7
2024-04-13T07:46:45.205Z,6
2024-04-13T07:47:45.265Z,6
2024-04-13T07:48:45.297Z,9
2024-04-13T07:49:45.216Z,6
2024-04-13T07:50:45.201Z,9
2024-04-13T07:51:45.213Z,7
2024-04-13T07:52:45.218Z,8
2024-04-13T07:53:45.201Z,6
2024-04-13T07:54:45.256Z,8
2024-04-13T07:55:45.210Z,8
2024-04-13T07:56:45.220Z,6
2024-04-13T07:57:45.307Z,6
2024-04-13T07:58:45.207Z,7
2024-04-13T07:59:45.209Z,6
2024-04-13T08:00:45.241Z,6
2024-04-13T08:01:45.212Z,8
2024-04-13T08:02:45.247Z,8
2024-04-13T08:03:45.331Z,7
2024-04-13T08:04:45.318Z,8
2024-04-13T08:05:45.212Z,6
2024-04-13T08:06:45.231Z,7
2024-04-13T08:07:45.205Z,6
2024-04-13T08:08:45.219Z,8
2024-04-13T08:09:45.255Z,5
2024-04-13T08:10:45.215Z,6
2024-04-13T08:11:45.219Z,9
2024-04-13T08:12:45.302Z,6
2024-04-13T08:13:45.216Z,6
2024-04-13T08:14:45.214Z,6
2024-04-13T08:15:45.376Z,7
2024-04-13T08:16:45.228Z,7
2024-04-13T08:17:45.237Z,7
2024-04-13T08:18:45.311Z,5
2024-04-13T08:19:45.241Z,7
2024-04-13T08:20:45.213Z,10
2024-04-13T08:21:45.301Z,8
2024-04-13T08:22:45.244Z,5
2024-04-13T08:23:45.233Z,5
2024-04-13T08:24:45.299Z,8
2024-04-13T08:25:45.226Z,7
2024-04-13T08:26:45.268Z,5
2024-04-13T08:27:45.299Z,7
2024-04-13T08:28:45.214Z,6
2024-04-13T08:29:45.220Z,8
2024-04-13T08:30:45.328Z,7
2024-04-13T08:31:45.268Z,10
2024-04-13T08:32:45.253Z,6
2024-04-13T08:33:45.278Z,6
2024-04-13T08:34:45.218Z,8
2024-04-13T08:35:45.227Z,9
2024-04-13T08:36:45.273Z,9
2024-04-13T08:37:45.234Z,7
2024-04-13T08:38:45.252Z,7
2024-04-13T08:39:45.298Z,6
2024-04-13T08:40:45.240Z,7
2024-04-13T08:41:45.233Z,5
2024-04-13T08:42:45.517Z,5
2024-04-13T08:43:45.236Z,5
2024-04-13T08:44:45.232Z,5
2024-04-13T08:45:45.352Z,8
2024-04-13T08:46:45.233Z,7
2024-04-13T08:47:45.301Z,6
2024-04-13T08:48:45.389Z,8
2024-04-13T08:49:45.233Z,7
2024-04-13T08:50:45.227Z,6
2024-04-13T08:51:45.254Z,6
2024-04-13T08:52:45.285Z,4
2024-04-13T08:53:45.244Z,6
2024-04-13T08:54:45.255Z,5
2024-04-13T08:55:45.259Z,6
2024-04-13T08:56:45.238Z,7
2024-04-13T08:57:45.269Z,7
2024-04-13T08:58:45.240Z,8
2024-04-13T08:59:45.244Z,5
2024-04-13T09:00:45.290Z,5
2024-04-13T09:01:46.408Z,6
2024-04-13T09:02:45.296Z,6
2024-04-13T09:03:45.399Z,8
2024-04-13T09:04:45.238Z,8
2024-04-13T09:05:45.252Z,6
2024-04-13T09:06:45.447Z,6
2024-04-13T09:07:45.254Z,6
2024-04-13T09:08:45.248Z,6
2024-04-13T09:09:45.748Z,7
2024-04-13T09:10:45.542Z,4
2024-04-13T09:11:45.262Z,8
2024-04-13T09:12:45.283Z,7
2024-04-13T09:13:45.261Z,5
2024-04-13T09:14:45.246Z,6
2024-04-13T09:15:45.343Z,5
2024-04-13T09:16:45.249Z,9
2024-04-13T09:17:45.302Z,4
2024-04-13T09:18:45.419Z,7
2024-04-13T09:19:45.279Z,6
2024-04-13T09:20:45.257Z,6
2024-04-13T09:21:45.381Z,6
2024-04-13T09:22:45.250Z,6
2024-04-13T09:23:45.257Z,8
2024-04-13T09:24:45.525Z,5
2024-04-13T09:25:45.259Z,8
2024-04-13T09:26:45.251Z,6
2024-04-13T09:27:45.341Z,6
2024-04-13T09:28:45.254Z,8
2024-04-13T09:29:45.282Z,5
2024-04-13T09:30:45.397Z,6
2024-04-13T09:31:45.254Z,5
2024-04-13T09:32:45.490Z,5
2024-04-13T09:33:45.270Z,7
2024-04-13T09:34:45.306Z,6
2024-04-13T09:35:45.259Z,9
2024-04-13T09:36:45.307Z,5
2024-04-13T09:37:45.255Z,5
2024-04-13T09:38:45.265Z,4
2024-04-13T09:39:45.392Z,4
2024-04-13T09:40:45.263Z,4
2024-04-13T09:41:45.675Z,5
2024-04-13T09:42:45.360Z,6
2024-04-13T09:43:45.262Z,6
2024-04-13T09:44:45.271Z,6
2024-04-13T09:45:45.283Z,4
2024-04-13T09:46:45.270Z,5
2024-04-13T09:47:45.313Z,7
2024-04-13T09:48:45.341Z,7
2024-04-13T09:49:45.284Z,6
2024-04-13T09:50:45.279Z,5
2024-04-13T09:51:45.280Z,3
2024-04-13T09:52:45.268Z,4
2024-04-13T09:53:45.275Z,7
2024-04-13T09:54:45.352Z,6
2024-04-13T09:55:45.274Z,6
2024-04-13T09:56:45.270Z,5
2024-04-13T09:57:46.129Z,5
2024-04-13T09:58:45.274Z,5
2024-04-13T09:59:45.274Z,5
2024-04-13T10:00:45.472Z,6
2024-04-13T10:01:45.434Z,6
2024-04-13T10:02:45.317Z,5
2024-04-13T10:03:45.470Z,6
2024-04-13T10:04:45.272Z,8
2024-04-13T10:05:45.283Z,5
2024-04-13T10:06:45.373Z,8
2024-04-13T10:07:45.292Z,7
2024-04-13T10:08:45.289Z,4
2024-04-13T10:09:45.343Z,7
2024-04-13T10:10:45.296Z,4
2024-04-13T10:11:45.288Z,7
2024-04-13T10:12:45.306Z,8
2024-04-13T10:13:45.299Z,8
2024-04-13T10:14:45.284Z,6
2024-04-13T10:15:45.364Z,5
2024-04-13T10:16:45.310Z,10
2024-04-13T10:17:45.309Z,6
2024-04-13T10:18:45.385Z,8
2024-04-13T10:19:45.284Z,8
2024-04-13T10:20:45.285Z,5
2024-04-13T10:21:45.442Z,7
2024-04-13T10:22:45.290Z,5
2024-04-13T10:23:45.296Z,6
2024-04-13T10:24:47.400Z,6
2024-04-13T10:25:45.311Z,6
2024-04-13T10:26:45.304Z,5
2024-04-13T10:27:45.331Z,6
2024-04-13T10:28:45.311Z,6
2024-04-13T10:29:45.292Z,5
2024-04-13T10:30:46.898Z,6
2024-04-13T10:31:45.384Z,8
2024-04-13T10:32:45.330Z,6
2024-04-13T10:33:45.400Z,4
2024-04-13T10:34:45.305Z,7
2024-04-13T10:35:45.295Z,4
2024-04-13T10:36:46.700Z,5
2024-04-13T10:37:45.302Z,5
2024-04-13T10:38:45.312Z,7
2024-04-13T10:39:45.366Z,5
2024-04-13T10:40:45.303Z,5
2024-04-13T10:41:45.297Z,7
2024-04-13T10:42:46.788Z,6
2024-04-13T10:43:45.322Z,7
2024-04-13T10:44:45.301Z,5
2024-04-13T10:45:45.331Z,5
2024-04-13T10:46:45.310Z,7
2024-04-13T10:47:45.343Z,4
2024-04-13T10:48:45.448Z,5
2024-04-13T10:49:54.601Z,8
2024-04-13T10:50:45.302Z,5
2024-04-13T10:51:45.434Z,7
2024-04-13T10:52:45.321Z,5
2024-04-13T10:53:45.311Z,6
2024-04-13T10:54:45.437Z,5
2024-04-13T10:55:45.396Z,4
2024-04-13T10:56:45.338Z,4
2024-04-13T10:57:45.426Z,5
2024-04-13T10:58:45.319Z,6
2024-04-13T10:59:45.306Z,4
2024-04-13T11:00:45.356Z,4
2024-04-13T11:01:45.381Z,6
2024-04-13T11:02:45.325Z,7
2024-04-13T11:03:45.388Z,5
2024-04-13T11:04:45.332Z,4
2024-04-13T11:05:45.327Z,4
2024-04-13T11:06:45.361Z,5
2024-04-13T11:07:45.338Z,5
2024-04-13T11:08:45.320Z,4
2024-04-13T11:09:45.392Z,3
2024-04-13T11:10:45.670Z,3
2024-04-13T11:11:45.329Z,5
2024-04-13T11:12:45.440Z,3
2024-04-13T11:13:45.327Z,4
2024-04-13T11:14:45.331Z,4
2024-04-13T11:15:45.413Z,6
2024-04-13T11:16:45.335Z,4
2024-04-13T11:17:45.429Z,4
2024-04-13T11:18:45.869Z,4
2024-04-13T11:19:45.384Z,4
2024-04-13T11:20:45.337Z,4
2024-04-13T11:21:45.382Z,4
2024-04-13T11:22:45.332Z,4
2024-04-13T11:23:45.325Z,4
2024-04-13T11:24:45.375Z,4
2024-04-13T11:25:45.322Z,4
2024-04-13T11:26:45.340Z,3
2024-04-13T11:27:45.405Z,4
2024-04-13T11:28:45.318Z,7
2024-04-13T11:29:45.324Z,4
2024-04-13T11:30:45.446Z,4
2024-04-13T11:31:46.890Z,8
2024-04-13T11:32:45.363Z,4
2024-04-13T11:33:45.415Z,6
2024-04-13T11:34:45.349Z,4
2024-04-13T11:35:45.341Z,3
2024-04-13T11:36:45.365Z,6
2024-04-13T11:37:45.336Z,5
2024-04-13T11:38:45.384Z,3
2024-04-13T11:39:45.357Z,5
2024-04-13T11:40:45.358Z,5
2024-04-13T11:41:45.346Z,3
2024-04-13T11:42:51.381Z,3
2024-04-13T11:43:45.382Z,5
2024-04-13T11:44:45.338Z,4
2024-04-13T11:45:45.366Z,6
2024-04-13T11:46:45.347Z,4
2024-04-13T11:47:45.426Z,4
2024-04-13T11:48:45.518Z,4
2024-04-13T11:49:45.356Z,4
2024-04-13T11:50:45.343Z,3
2024-04-13T11:51:45.459Z,5
2024-04-13T11:52:45.365Z,4
2024-04-13T11:53:45.348Z,6
2024-04-13T11:54:45.383Z,5
2024-04-13T11:55:45.354Z,6
2024-04-13T11:56:45.569Z,4
2024-04-13T11:57:45.434Z,3
2024-04-13T11:58:45.359Z,5
2024-04-13T11:59:45.363Z,6
2024-04-13T12:00:45.438Z,4
2024-04-13T12:01:45.360Z,7
2024-04-13T12:02:45.391Z,6
2024-04-13T12:03:45.377Z,5
2024-04-13T12:04:45.406Z,4
2024-04-13T12:05:45.374Z,4
2024-04-13T12:06:45.431Z,6
2024-04-13T12:07:45.363Z,8
2024-04-13T12:08:45.529Z,6
2024-04-13T12:09:45.453Z,5
2024-04-13T12:10:45.382Z,5
2024-04-13T12:11:45.364Z,6
2024-04-13T12:12:45.369Z,5
2024-04-13T12:13:45.385Z,5
2024-04-13T12:14:49.921Z,7
2024-04-13T12:15:45.410Z,5
2024-04-13T12:16:45.367Z,5
2024-04-13T12:17:45.428Z,4
2024-04-13T12:18:45.549Z,4
2024-04-13T12:19:45.377Z,4
2024-04-13T12:20:45.368Z,5
2024-04-13T12:21:45.552Z,4
2024-04-13T12:22:45.386Z,5
2024-04-13T12:23:45.409Z,4
2024-04-13T12:24:45.506Z,4
2024-04-13T12:25:45.368Z,4
2024-04-13T12:26:45.368Z,4
2024-04-13T12:27:45.411Z,4
2024-04-13T12:28:45.394Z,4
2024-04-13T12:29:45.384Z,4
2024-04-13T12:30:45.456Z,4
2024-04-13T12:31:45.376Z,5
2024-04-13T12:32:45.454Z,3
2024-04-13T12:33:45.400Z,4
2024-04-13T12:34:45.500Z,5
2024-04-13T12:35:45.375Z,5
2024-04-13T12:36:45.432Z,5
2024-04-13T12:37:45.380Z,4
2024-04-13T12:38:45.374Z,4
2024-04-13T12:39:45.398Z,3
2024-04-13T12:40:45.384Z,4
2024-04-13T12:41:45.377Z,3
2024-04-13T12:42:45.455Z,4
2024-04-13T12:43:45.383Z,6
2024-04-13T12:44:45.382Z,4
2024-04-13T12:45:45.420Z,4
2024-04-13T12:46:45.377Z,4
2024-04-13T12:47:45.469Z,6
2024-04-13T12:48:45.468Z,5
2024-04-13T12:49:45.380Z,4
2024-04-13T12:50:45.387Z,5
2024-04-13T12:51:45.422Z,4
2024-04-13T12:52:46.217Z,4
2024-04-13T12:53:45.390Z,8
2024-04-13T12:54:45.594Z,4
2024-04-13T12:55:45.411Z,5
2024-04-13T12:56:45.388Z,4
2024-04-13T12:57:45.482Z,4
2024-04-13T12:58:45.981Z,3
2024-04-13T12:59:45.402Z,3
2024-04-13T13:00:45.430Z,4
2024-04-13T13:01:45.392Z,5
2024-04-13T13:02:45.431Z,4
2024-04-13T13:03:45.448Z,3
2024-04-13T13:04:45.398Z,3
2024-04-13T13:05:46.085Z,4
2024-04-13T13:06:45.460Z,4
2024-04-13T13:07:45.395Z,4
2024-04-13T13:09:45.435Z,4
2024-04-13T13:10:45.409Z,5
2024-04-13T13:11:46.093Z,4
2024-04-13T13:12:45.519Z,3
2024-04-13T13:13:45.397Z,3
2024-04-13T13:14:45.407Z,4
2024-04-13T13:15:45.474Z,3
2024-04-13T13:16:45.437Z,5
2024-04-13T13:17:45.519Z,4
2024-04-13T13:18:45.467Z,3
2024-04-13T13:19:45.405Z,3
2024-04-13T13:20:45.403Z,4
2024-04-13T13:21:45.441Z,3
2024-04-13T13:22:47.256Z,4
2024-04-13T13:23:45.513Z,4
2024-04-13T13:24:45.440Z,3
2024-04-13T13:25:45.413Z,4
2024-04-13T13:26:45.433Z,7
2024-04-13T13:27:45.558Z,3
2024-04-13T13:28:47.803Z,3
2024-04-13T13:29:45.415Z,3
2024-04-13T13:30:45.470Z,4
2024-04-13T13:31:45.427Z,4
2024-04-13T13:32:45.547Z,4
2024-04-13T13:33:45.460Z,3
2024-04-13T13:34:45.409Z,3
2024-04-13T13:35:45.448Z,6
2024-04-13T13:36:45.435Z,5
2024-04-13T13:37:45.417Z,4
2024-04-13T13:38:45.411Z,3
2024-04-13T13:39:45.442Z,5
2024-04-13T13:40:45.427Z,4
2024-04-13T13:41:45.421Z,3
2024-04-13T13:42:45.535Z,3
2024-04-13T13:43:45.433Z,8
2024-04-13T13:44:45.415Z,5
2024-04-13T13:45:45.490Z,3
2024-04-13T13:46:47.303Z,5
2024-04-13T13:47:45.529Z,5
2024-04-13T13:48:45.543Z,4
2024-04-13T13:49:45.437Z,3
2024-04-13T13:50:45.435Z,4
2024-04-13T13:51:45.516Z,5
2024-04-13T13:52:46.738Z,4
2024-04-13T13:53:45.418Z,3
2024-04-13T13:54:45.576Z,3
2024-04-13T13:55:45.443Z,5
2024-04-13T13:56:45.465Z,5
2024-04-13T13:57:45.650Z,5
2024-04-13T13:58:45.432Z,4
2024-04-13T13:59:45.431Z,5
2024-04-13T14:00:45.519Z,4
2024-04-13T14:01:45.432Z,3
2024-04-13T14:02:45.454Z,4
2024-04-13T14:03:45.515Z,4
2024-04-13T14:04:45.430Z,3
2024-04-13T14:05:45.435Z,4
2024-04-13T14:06:45.478Z,3
2024-04-13T14:07:45.433Z,4
2024-04-13T14:08:45.446Z,3
2024-04-13T14:09:45.501Z,3
2024-04-13T14:10:45.458Z,4
2024-04-13T14:11:45.467Z,3
2024-04-13T14:12:45.535Z,4
2024-04-13T14:13:45.434Z,4
2024-04-13T14:14:45.443Z,3
2024-04-13T14:15:45.457Z,5
2024-04-13T14:16:45.473Z,4
2024-04-13T14:17:45.497Z,4
2024-04-13T14:18:45.460Z,3
2024-04-13T14:19:45.439Z,3
2024-04-13T14:20:45.477Z,3
2024-04-13T14:21:45.522Z,4
2024-04-13T14:22:45.455Z,4
2024-04-13T14:23:45.447Z,4
2024-04-13T14:24:45.567Z,7
2024-04-13T14:25:48.521Z,4
2024-04-13T14:26:45.449Z,3
2024-04-13T14:27:45.468Z,3
2024-04-13T14:28:45.456Z,3
2024-04-13T14:29:45.448Z,4
2024-04-13T14:30:45.486Z,3
2024-04-13T14:31:45.451Z,4
2024-04-13T14:32:45.509Z,3
2024-04-13T14:33:45.595Z,5
2024-04-13T14:34:45.461Z,3
2024-04-13T14:35:45.459Z,4
2024-04-13T14:36:45.487Z,4
2024-04-13T14:37:45.455Z,3
2024-04-13T14:38:45.467Z,4
2024-04-13T14:39:45.469Z,4
2024-04-13T14:40:47.122Z,5
2024-04-13T14:41:45.462Z,5
2024-04-13T14:42:45.475Z,3
2024-04-13T14:43:45.523Z,4
2024-04-13T14:44:45.468Z,3
2024-04-13T14:45:45.498Z,2
2024-04-13T14:46:45.461Z,4
2024-04-13T14:47:45.503Z,4
2024-04-13T14:48:45.657Z,4
2024-04-13T14:49:45.471Z,4